Time;durP1;ratioP1;P1;durP2;ratioP2;P2;SDS_P1;SDS_P2;PMS_P1;PMS_P2;Temp;Humidity;BMP_temperature;BMP_pressure;BME280_temperature;BME280_humidity;BME280_pressure;Samples;Min_cycle;Max_cycle;Signal;HPM_P1;HPM_P2
2022/04/06 07:02:09;;;;;;;2.63;1.35;;;;;;;;;;10456677;28;20045;-87
2022/04/06 07:07:10;;;;;;;4.55;1.83;;;;;;;;;;10464178;28;20033;-84
2022/04/06 07:12:11;;;;;;;3.45;1.60;;;;;;;;;;10452889;28;20468;-80
2022/04/06 07:17:12;;;;;;;3.55;1.60;;;;;;;;;;10430369;28;20021;-80
2022/04/06 07:22:13;;;;;;;4.50;1.52;;;;;;;;;;10430011;28;20052;-80
2022/04/06 07:27:16;;;;;;;;;;;;;;;;;;10428910;28;20061;-80
2022/04/06 07:32:17;;;;;;;5.80;1.77;;;;;;;;;;10429418;28;20357;-81
2022/04/06 07:37:18;;;;;;;;;;;;;;;;;;10431182;28;20048;-81
2022/04/06 07:42:19;;;;;;;5.43;2.67;;;;;;;;;;10447764;28;19915;-81
2022/04/06 07:47:20;;;;;;;;;;;;;;;;;;10433293;28;20060;-80
2022/04/06 07:52:22;;;;;;;8.15;3.78;;;;;;;;;;10453538;28;19916;-80
2022/04/06 07:57:24;;;;;;;6.65;4.25;;;;;;;;;;10433097;28;20022;-81
2022/04/06 08:02:25;;;;;;;9.38;4.90;;;;;;;;;;10431450;28;20514;-81
2022/04/06 08:07:26;;;;;;;6.03;3.78;;;;;;;;;;10431114;28;20034;-80
2022/04/06 08:12:27;;;;;;;;;;;;;;;;;;10441520;28;20034;-80
2022/04/06 08:17:32;;;;;;;8.02;3.42;;;;;;;;;;10442567;28;20255;-80
2022/04/06 08:22:33;;;;;;;7.05;3.13;;;;;;;;;;10427425;28;20373;-81
2022/04/06 08:27:39;;;;;;;5.60;3.05;;;;;;;;;;10428250;28;20053;-79
2022/04/06 08:32:40;;;;;;;5.70;3.17;;;;;;;;;;10427322;28;20056;-80
2022/04/06 08:37:41;;;;;;;;;;;;;;;;;;10425684;28;20543;-79
2022/04/06 08:42:42;;;;;;;6.57;3.85;;;;;;;;;;10446108;28;19916;-80
2022/04/06 08:47:45;;;;;;;7.82;3.90;;;;;;;;;;10430037;28;20036;-81
2022/04/06 08:52:46;;;;;;;7.85;3.55;;;;;;;;;;10428680;28;20026;-79
2022/04/06 08:57:55;;;;;;;4.70;3.15;;;;;;;;;;10432759;28;20029;-81
2022/04/06 09:02:57;;;;;;;4.50;2.30;;;;;;;;;;10425506;28;20037;-77
2022/04/06 09:07:58;;;;;;;;;;;;;;;;;;10439816;28;20159;-80
2022/04/06 09:13:11;;;;;;;5.22;2.70;;;;;;;;;;10441166;28;19913;-80
2022/04/06 09:18:12;;;;;;;6.88;2.83;;;;;;;;;;10440168;28;20030;-82
2022/04/06 09:23:14;;;;;;;6.32;3.10;;;;;;;;;;10426727;28;20037;-80
2022/04/06 09:28:15;;;;;;;6.82;3.45;;;;;;;;;;10423360;28;20100;-79
2022/04/06 09:33:18;;;;;;;5.55;2.88;;;;;;;;;;10423382;28;20215;-80
2022/04/06 09:38:25;;;;;;;4.22;2.10;;;;;;;;;;10426039;28;20165;-82
2022/04/06 09:43:27;;;;;;;4.03;1.73;;;;;;;;;;10427915;28;20048;-81
2022/04/06 09:48:28;;;;;;;3.72;2.10;;;;;;;;;;10425681;28;20032;-82
2022/04/06 09:53:30;;;;;;;5.60;2.08;;;;;;;;;;10433114;28;20029;-81
2022/04/06 09:58:31;;;;;;;6.45;2.80;;;;;;;;;;10426832;28;20061;-81
2022/04/06 10:03:35;;;;;;;4.65;3.15;;;;;;;;;;10424217;28;20036;-80
2022/04/06 10:08:41;;;;;;;3.97;2.30;;;;;;;;;;10421491;28;20503;-79
2022/04/06 10:13:43;;;;;;;6.47;1.52;;;;;;;;;;10422401;28;20061;-81
2022/04/06 10:18:45;;;;;;;10.13;5.90;;;;;;;;;;10422231;28;20086;-80
2022/04/06 10:24:05;;;;;;;4.97;2.10;;;;;;;;;;10421891;28;20036;-80
2022/04/06 10:29:06;;;;;;;5.65;2.28;;;;;;;;;;10422624;28;20501;-81
2022/04/06 10:34:07;;;;;;;;;;;;;;;;;;10430603;28;20075;-81
2022/04/06 10:39:09;;;;;;;4.32;2.25;;;;;;;;;;10451498;28;20394;-80
2022/04/06 10:44:30;;;;;;;6.90;2.80;;;;;;;;;;10433709;28;20027;-81
2022/04/06 10:49:31;;;;;;;5.22;2.40;;;;;;;;;;10435876;28;20033;-79
2022/04/06 10:54:39;;;;;;;7.53;3.60;;;;;;;;;;10432400;28;20040;-79
2022/04/06 10:59:40;;;;;;;6.95;3.90;;;;;;;;;;10432455;28;20060;-80
2022/04/06 11:04:41;;;;;;;;;;;;;;;;;;10431483;28;20041;-79
2022/04/06 11:15:03;;;;;;;6.18;2.92;;;;;;;;;;10435916;28;20109;-79
2022/04/06 11:20:07;;;;;;;4.30;2.83;;;;;;;;;;10430444;28;20061;-79
2022/04/06 11:25:09;;;;;;;6.00;3.40;;;;;;;;;;10426093;28;20033;-78
2022/04/06 11:30:12;;;;;;;5.63;2.83;;;;;;;;;;10425783;28;20025;-76
2022/04/06 11:35:15;;;;;;;5.80;2.80;;;;;;;;;;10445535;28;20010;-79
2022/04/06 11:40:21;;;;;;;8.25;2.88;;;;;;;;;;10442131;28;20025;-76
2022/04/06 11:45:23;;;;;;;4.55;2.40;;;;;;;;;;10431247;28;20144;-76
2022/04/06 11:50:31;;;;;;;5.97;2.20;;;;;;;;;;10427551;28;20037;-79
2022/04/06 11:55:48;;;;;;;4.85;1.60;;;;;;;;;;10425421;28;20032;-77
2022/04/06 12:00:58;;;;;;;5.80;1.70;;;;;;;;;;10431296;28;20034;-77
2022/04/06 12:05:59;;;;;;;5.00;1.67;;;;;;;;;;10429490;28;20377;-76
2022/04/06 12:11:01;;;;;;;4.00;1.83;;;;;;;;;;10425426;28;20028;-78
2022/04/06 12:16:03;;;;;;;5.28;1.80;;;;;;;;;;10425248;28;20095;-77
2022/04/06 12:21:04;;;;;;;3.53;1.55;;;;;;;;;;10427257;28;20047;-79
2022/04/06 12:26:11;;;;;;;2.92;1.75;;;;;;;;;;10433038;28;20021;-80
2022/04/06 12:31:12;;;;;;;3.53;1.65;;;;;;;;;;10430257;28;20026;-79
2022/04/06 12:36:14;;;;;;;;;;;;;;;;;;10430089;28;20025;-81
2022/04/06 12:41:15;;;;;;;5.53;2.00;;;;;;;;;;10409482;28;19905;-78
2022/04/06 12:46:15;;;;;;;;;;;;;;;;;;10420277;28;20094;-78
2022/04/06 12:51:17;;;;;;;3.58;1.73;;;;;;;;;;10402369;28;19909;-78
2022/04/06 12:56:23;;;;;;;7.35;4.05;;;;;;;;;;10422729;28;20479;-79
2022/04/06 13:01:24;;;;;;;4.15;2.20;;;;;;;;;;10423092;28;20108;-79
2022/04/06 13:06:25;;;;;;;;;;;;;;;;;;10426875;28;20053;-82
2022/04/06 13:11:26;;;;;;;5.40;1.90;;;;;;;;;;10419470;28;19984;-82
2022/04/06 13:16:28;;;;;;;;;;;;;;;;;;10441825;28;20026;-80
2022/04/06 13:21:33;;;;;;;3.08;1.40;;;;;;;;;;10421597;28;19905;-81
2022/04/06 13:26:34;;;;;;;4.03;1.65;;;;;;;;;;10430588;28;20391;-82
2022/04/06 13:31:39;;;;;;;;;;;;;;;;;;10429528;28;20033;-82
2022/04/06 13:36:40;;;;;;;4.20;1.58;;;;;;;;;;10412348;28;19912;-83
2022/04/06 13:41:41;;;;;;;2.42;1.73;;;;;;;;;;10404062;23;20408;-79
2022/04/06 13:46:42;;;;;;;4.18;1.33;;;;;;;;;;10325486;28;20027;-79
2022/04/06 13:51:45;;;;;;;4.57;1.23;;;;;;;;;;10325584;28;20476;-79
2022/04/06 13:56:47;;;;;;;2.00;1.17;;;;;;;;;;10344565;28;20015;-79
2022/04/06 14:01:48;;;;;;;4.68;1.40;;;;;;;;;;10345168;28;20030;-79
2022/04/06 14:06:49;;;;;;;5.18;1.80;;;;;;;;;;10346417;28;20089;-81
2022/04/06 14:11:51;;;;;;;;;;;;;;;;;;10346271;28;20105;-79
2022/04/06 14:16:52;;;;;;;3.03;1.75;;;;;;;;;;10346142;28;19913;-80
2022/04/06 14:21:53;;;;;;;;;;;;;;;;;;10351829;28;20078;-80
2022/04/06 14:26:54;;;;;;;3.85;1.10;;;;;;;;;;10356472;28;19916;-80
2022/04/06 14:31:55;;;;;;;;;;;;;;;;;;10360156;28;20030;-80
2022/04/06 14:36:56;;;;;;;3.63;1.55;;;;;;;;;;10360675;28;19912;-81
2022/04/06 14:41:57;;;;;;;;;;;;;;;;;;10355651;28;20037;-80
2022/04/06 14:46:58;;;;;;;2.53;1.30;;;;;;;;;;10352322;28;19905;-79
2022/04/06 14:51:59;;;;;;;3.05;1.70;;;;;;;;;;10354795;28;20104;-81
2022/04/06 14:57:00;;;;;;;;;;;;;;;;;;10358059;28;20107;-80
2022/04/06 15:02:01;;;;;;;3.53;1.40;;;;;;;;;;10355927;28;19905;-80
2022/04/06 15:07:02;;;;;;;3.50;1.38;;;;;;;;;;10353297;28;20034;-79
2022/04/06 15:12:03;;;;;;;;;;;;;;;;;;10353260;28;20034;-80
2022/04/06 15:17:04;;;;;;;2.63;1.23;;;;;;;;;;10350936;28;19905;-81
2022/04/06 15:22:05;;;;;;;;;;;;;;;;;;10350784;28;20528;-80
2022/04/06 15:27:06;;;;;;;2.60;1.20;;;;;;;;;;10350823;28;19964;-80
2022/04/06 15:32:07;;;;;;;;;;;;;;;;;;10348949;28;20041;-80
2022/04/06 15:37:22;;;;;;;2.10;1.30;;;;;;;;;;10348637;28;20278;-80
2022/04/06 15:42:26;;;;;;;3.80;1.48;;;;;;;;;;10350858;28;20038;-80
2022/04/06 15:47:28;;;;;;;7.10;3.33;;;;;;;;;;10348960;28;20345;-80
2022/04/06 15:52:29;;;;;;;14.65;6.78;;;;;;;;;;10350342;28;20031;-79
2022/04/06 15:57:30;;;;;;;11.77;4.90;;;;;;;;;;10351834;28;20025;-79
2022/04/06 16:02:31;;;;;;;;;;;;;;;;;;10356363;28;20030;-79
2022/04/06 16:07:33;;;;;;;6.97;3.50;;;;;;;;;;10356435;28;20126;-80
2022/04/06 16:12:35;;;;;;;6.15;2.95;;;;;;;;;;10364361;28;20326;-81
2022/04/06 16:17:36;;;;;;;4.25;2.13;;;;;;;;;;10360360;28;20129;-80
2022/04/06 16:22:37;;;;;;;4.55;2.30;;;;;;;;;;10362139;28;20037;-79
2022/04/06 16:27:38;;;;;;;;;;;;;;;;;;10345762;28;20084;-84
2022/04/06 16:32:40;;;;;;;2.58;1.58;;;;;;;;;;10348877;28;19997;-83
2022/04/06 16:37:42;;;;;;;3.50;1.85;;;;;;;;;;10349016;28;20026;-84
2022/04/06 16:42:42;;;;;;;;;;;;;;;;;;10347346;28;20061;-84
2022/04/06 16:47:44;;;;;;;4.05;1.85;;;;;;;;;;10347694;28;19940;-84
2022/04/06 16:52:49;;;;;;;2.95;1.50;;;;;;;;;;10352225;28;20058;-85
2022/04/06 16:57:51;;;;;;;2.85;1.58;;;;;;;;;;10359056;28;20026;-85
2022/04/06 17:02:54;;;;;;;2.10;1.30;;;;;;;;;;10354067;28;20041;-85
2022/04/06 17:07:55;;;;;;;2.50;1.33;;;;;;;;;;10351282;28;20034;-84
2022/04/06 17:12:56;;;;;;;2.25;1.15;;;;;;;;;;10349008;28;20117;-84
2022/04/06 17:17:57;;;;;;;3.55;1.30;;;;;;;;;;10348966;28;20034;-84
2022/04/06 17:22:59;;;;;;;2.83;1.40;;;;;;;;;;10349769;28;20149;-84
2022/04/06 17:28:00;;;;;;;3.28;1.10;;;;;;;;;;10350076;28;20545;-84
2022/04/06 17:33:01;;;;;;;2.25;1.00;;;;;;;;;;10351041;28;20041;-85
2022/04/06 17:38:02;;;;;;;2.55;1.15;;;;;;;;;;10351218;28;20054;-85
2022/04/06 17:43:03;;;;;;;;;;;;;;;;;;10350719;28;20054;-84
2022/04/06 17:48:10;;;;;;;2.03;1.23;;;;;;;;;;10351633;28;19990;-86
2022/04/06 17:53:11;;;;;;;2.55;1.55;;;;;;;;;;10351009;28;20026;-84
2022/04/06 17:58:15;;;;;;;4.78;1.83;;;;;;;;;;10351548;28;20057;-86
2022/04/06 18:03:16;;;;;;;3.60;1.80;;;;;;;;;;10349608;28;20098;-86
2022/04/06 18:08:17;;;;;;;2.78;1.38;;;;;;;;;;10351095;28;20034;-84
2022/04/06 18:18:38;;;;;;;2.95;1.85;;;;;;;;;;10351768;28;20027;-84
2022/04/06 18:23:40;;;;;;;2.85;1.08;;;;;;;;;;10349232;28;20042;-84
2022/04/06 18:28:43;;;;;;;;;;;;;;;;;;10350811;28;20081;-84
2022/04/06 18:33:44;;;;;;;2.97;1.48;;;;;;;;;;10348980;28;19909;-84
2022/04/06 18:38:45;;;;;;;;;;;;;;;;;;10349556;28;20058;-85
2022/04/06 18:43:46;;;;;;;2.85;1.30;;;;;;;;;;10350139;28;19917;-84
2022/04/06 18:48:47;;;;;;;;;;;;;;;;;;10338452;28;20034;-84
2022/04/06 18:53:48;;;;;;;2.72;1.70;;;;;;;;;;10337006;28;19909;-84
2022/04/06 18:58:49;;;;;;;;;;;;;;;;;;10345026;28;20023;-85
2022/04/06 19:03:49;;;;;;;3.42;2.13;;;;;;;;;;10349858;28;19906;-84
2022/04/06 19:08:50;;;;;;;;;;;;;;;;;;10347169;28;20035;-84
2022/04/06 19:13:52;;;;;;;4.68;3.22;;;;;;;;;;10351513;28;19977;-84
2022/04/06 19:18:53;;;;;;;3.75;1.88;;;;;;;;;;10389385;28;20069;-83
2022/04/06 19:23:54;;;;;;;;;;;;;;;;;;10376617;28;20117;-85
